createdAt,value
2023-03-11T00:02:20.771Z,94249.88
2023-03-11T00:04:50.144Z,94248.50
2023-03-11T00:07:20.867Z,94260.63
2023-03-11T00:09:50.415Z,94248.13
2023-03-11T00:12:19.833Z,94253.09
2023-03-11T00:14:49.223Z,94268.50
2023-03-11T00:17:18.583Z,94281.84
2023-03-11T00:19:48.072Z,94281.44
2023-03-11T00:22:17.496Z,94304.34
2023-03-11T00:24:48.220Z,94290.03
2023-03-11T00:27:17.664Z,94304.50
2023-03-11T00:29:47.111Z,94305.97
2023-03-11T00:32:16.530Z,94307.50
2023-03-11T00:34:45.991Z,94314.56
2023-03-11T00:37:15.548Z,94318.34
2023-03-11T00:39:45.034Z,94320.84
2023-03-11T00:42:15.780Z,94320.69
2023-03-11T00:44:45.281Z,94327.50
2023-03-11T00:47:15.097Z,94328.16
2023-03-11T00:49:44.562Z,94335.84
2023-03-11T00:52:13.938Z,94334.50
2023-03-11T00:54:43.346Z,94341.97
2023-03-11T00:57:12.876Z,94354.22
2023-03-11T00:59:44.004Z,94347.66
2023-03-11T01:02:13.513Z,94349.91
2023-03-11T01:04:43.027Z,94341.47
2023-03-11T01:07:12.492Z,94343.97
2023-03-11T01:09:41.936Z,94343.72
2023-03-11T01:12:11.468Z,94346.38
2023-03-11T01:14:40.881Z,94350.44
2023-03-11T01:17:13.109Z,94346.13
2023-03-11T01:19:42.475Z,94342.97
2023-03-11T01:22:12.201Z,94331.34
2023-03-11T01:24:41.627Z,94336.41
2023-03-11T01:27:11.040Z,94335.13
2023-03-11T01:29:40.444Z,94330.78
2023-03-11T01:32:12.848Z,94342.09
2023-03-11T01:34:42.245Z,94338.09
2023-03-11T01:37:11.710Z,94342.81
2023-03-11T01:39:41.084Z,94345.53
2023-03-11T01:42:10.458Z,94352.84
2023-03-11T01:44:39.913Z,94356.06
2023-03-11T01:47:41.001Z,94341.38
2023-03-11T01:50:14.705Z,94348.13
2023-03-11T01:52:45.786Z,94349.72
2023-03-11T01:55:18.494Z,94342.50
2023-03-11T01:57:49.340Z,94342.50
2023-03-11T02:00:19.902Z,94348.03
2023-03-11T02:02:55.780Z,94325.94
2023-03-11T02:05:26.476Z,94342.78
2023-03-11T02:07:57.492Z,94341.50
2023-03-11T02:10:31.727Z,94333.47
2023-03-11T02:13:03.874Z,94360.91
2023-03-11T02:15:39.547Z,94364.50
2023-03-11T02:18:14.620Z,94361.84
2023-03-11T02:20:53.840Z,94373.84
2023-03-11T02:23:31.746Z,94380.75
2023-03-11T02:26:10.809Z,94366.81
2023-03-11T02:28:43.828Z,94366.00
2023-03-11T02:31:14.206Z,94388.91
2023-03-11T02:33:47.028Z,94375.88
2023-03-11T02:36:37.940Z,94382.69
2023-03-11T02:39:10.892Z,94386.84
2023-03-11T02:41:47.339Z,94381.78
2023-03-11T02:44:18.450Z,94376.34
2023-03-11T02:46:48.484Z,94377.06
2023-03-11T02:49:19.476Z,94388.56
2023-03-11T02:51:48.911Z,94391.78
2023-03-11T02:54:18.295Z,94388.09
2023-03-11T02:56:48.070Z,94392.59
2023-03-11T02:59:18.876Z,94398.34
2023-03-11T03:01:48.527Z,94402.19
2023-03-11T03:04:18.281Z,94411.16
2023-03-11T03:06:47.703Z,94398.41
2023-03-11T03:09:19.260Z,94401.19
2023-03-11T03:11:48.783Z,94411.06
2023-03-11T03:14:19.577Z,94416.00
2023-03-11T03:16:49.328Z,94421.53
2023-03-11T03:19:21.268Z,94416.47
2023-03-11T03:21:51.009Z,94431.66
2023-03-11T03:24:20.947Z,94418.09
2023-03-11T03:26:51.995Z,94424.31
2023-03-11T03:29:22.911Z,94422.69
2023-03-11T03:31:52.859Z,94410.72
2023-03-11T03:34:22.334Z,94412.22
2023-03-11T03:36:51.925Z,94417.50
2023-03-11T03:39:21.559Z,94430.06
2023-03-11T03:41:53.576Z,94429.59
2023-03-11T03:44:26.804Z,94429.59
2023-03-11T03:46:56.511Z,94418.31
2023-03-11T03:49:26.254Z,94408.22
2023-03-11T03:51:56.360Z,94426.75
2023-03-11T03:54:31.506Z,94413.59
2023-03-11T03:57:02.045Z,94413.97
2023-03-11T03:59:34.912Z,94423.97
2023-03-11T04:02:04.392Z,94424.09
2023-03-11T04:04:34.331Z,94428.47
2023-03-11T04:07:05.908Z,94440.31
2023-03-11T04:09:40.228Z,94434.22
2023-03-11T04:12:12.838Z,94444.56
2023-03-11T04:14:44.164Z,94436.75
2023-03-11T04:17:14.800Z,94443.75
2023-03-11T04:19:44.825Z,94433.31
2023-03-11T04:22:14.897Z,94439.63
2023-03-11T04:24:44.409Z,94441.34
2023-03-11T04:27:13.806Z,94437.91
2023-03-11T04:29:44.898Z,94442.03
2023-03-11T04:32:14.583Z,94436.06
2023-03-11T04:34:45.688Z,94436.03
2023-03-11T04:37:17.012Z,94443.53
2023-03-11T04:39:46.865Z,94445.34
2023-03-11T04:42:16.290Z,94442.50
2023-03-11T04:44:47.981Z,94447.44
2023-03-11T04:47:18.856Z,94450.31
2023-03-11T04:49:48.576Z,94453.19
2023-03-11T04:52:18.062Z,94458.00
2023-03-11T04:54:47.634Z,94463.44
2023-03-11T04:57:17.774Z,94468.81
2023-03-11T04:59:49.470Z,94474.69
2023-03-11T05:02:20.027Z,94462.84
2023-03-11T05:04:56.266Z,94477.66
2023-03-11T05:07:25.757Z,94472.16
2023-03-11T05:09:55.743Z,94486.06
2023-03-11T05:12:25.662Z,94487.00
2023-03-11T05:14:58.024Z,94490.53
2023-03-11T05:17:27.628Z,94489.75
2023-03-11T05:19:57.673Z,94488.03
2023-03-11T05:22:33.027Z,94490.34
2023-03-11T05:25:02.961Z,94489.28
2023-03-11T05:27:33.557Z,94497.00
2023-03-11T05:30:05.008Z,94499.06
2023-03-11T05:32:37.457Z,94501.34
2023-03-11T05:35:10.268Z,94508.47
2023-03-11T05:37:40.223Z,94508.13
2023-03-11T05:40:13.414Z,94507.44
2023-03-11T05:42:42.889Z,94511.44
2023-03-11T05:45:16.271Z,94510.84
2023-03-11T05:47:48.346Z,94510.06
2023-03-11T05:50:20.050Z,94513.41
2023-03-11T05:52:50.987Z,94513.00
2023-03-11T05:55:21.399Z,94517.16
2023-03-11T05:57:53.234Z,94513.00
2023-03-11T06:00:24.707Z,94516.94
2023-03-11T06:02:56.379Z,94531.03
2023-03-11T06:05:26.217Z,94523.69
2023-03-11T06:07:57.566Z,94537.00
2023-03-11T06:10:27.453Z,94534.13
2023-03-11T06:12:57.365Z,94544.03
2023-03-11T06:15:41.016Z,94547.34
2023-03-11T06:18:11.734Z,94546.47
2023-03-11T06:20:41.933Z,94543.38
2023-03-11T06:23:11.363Z,94542.34
2023-03-11T06:25:41.065Z,94547.25
2023-03-11T06:28:11.233Z,94551.84
2023-03-11T06:30:44.242Z,94550.34
2023-03-11T06:33:17.075Z,94561.50
2023-03-11T06:35:47.886Z,94558.13
2023-03-11T06:38:17.301Z,94554.56
2023-03-11T06:40:46.770Z,94553.75
2023-03-11T06:43:16.339Z,94563.06
2023-03-11T06:45:48.900Z,94559.47
2023-03-11T06:48:18.613Z,94566.00
2023-03-11T06:50:56.095Z,94573.34
2023-03-11T06:53:26.949Z,94588.66
2023-03-11T06:56:02.734Z,94580.94
2023-03-11T06:58:36.982Z,94586.81
2023-03-11T07:01:12.255Z,94597.03
2023-03-11T07:03:43.381Z,94593.81
2023-03-11T07:06:15.281Z,94594.19
2023-03-11T07:08:47.418Z,94605.41
2023-03-11T07:11:21.012Z,94615.31
2023-03-11T07:13:55.712Z,94618.91
2023-03-11T07:16:29.966Z,94621.13
2023-03-11T07:19:06.192Z,94626.78
2023-03-11T07:21:35.648Z,94630.53
2023-03-11T07:24:06.737Z,94631.56
2023-03-11T07:26:37.528Z,94640.59
2023-03-11T07:29:07.080Z,94644.75
2023-03-11T07:31:38.694Z,94651.94
2023-03-11T07:34:15.238Z,94651.94
2023-03-11T07:36:45.029Z,94655.41
2023-03-11T07:39:17.604Z,94649.53
2023-03-11T07:41:48.003Z,94656.75
2023-03-11T07:44:19.068Z,94663.81
2023-03-11T07:46:49.801Z,94669.00
2023-03-11T07:49:19.192Z,94671.63
2023-03-11T07:51:48.601Z,94678.03
2023-03-11T07:54:18.060Z,94677.59
2023-03-11T07:56:47.719Z,94683.59
2023-03-11T07:59:17.285Z,94671.28
2023-03-11T08:01:47.259Z,94673.25
2023-03-11T08:04:18.857Z,94662.66
2023-03-11T08:06:49.318Z,94658.63
2023-03-11T08:09:18.881Z,94662.56
2023-03-11T08:11:49.737Z,94665.44
2023-03-11T08:14:19.341Z,94671.31
2023-03-11T08:16:49.372Z,94688.94
2023-03-11T08:19:20.328Z,94691.25
2023-03-11T08:21:50.144Z,94693.88
2023-03-11T08:24:19.672Z,94691.25
2023-03-11T08:26:49.442Z,94698.06
2023-03-11T08:29:18.914Z,94695.97
2023-03-11T08:31:48.486Z,94698.94
2023-03-11T08:34:21.059Z,94689.38
2023-03-11T08:36:50.671Z,94692.94
2023-03-11T08:39:20.114Z,94685.84
2023-03-11T08:41:49.570Z,94696.06
2023-03-11T08:44:18.935Z,94704.81
2023-03-11T08:46:48.635Z,94709.81
2023-03-11T08:49:19.433Z,94718.19
2023-03-11T08:51:48.879Z,94718.31
2023-03-11T08:54:18.320Z,94721.19
2023-03-11T08:56:48.993Z,94724.53
2023-03-11T08:59:19.665Z,94712.09
2023-03-11T09:01:49.272Z,94721.78
2023-03-11T09:04:20.135Z,94724.66
2023-03-11T09:06:49.849Z,94716.13
2023-03-11T09:09:20.353Z,94713.91
2023-03-11T09:11:50.372Z,94718.78
2023-03-11T09:14:19.960Z,94716.56
2023-03-11T09:16:49.338Z,94714.72
2023-03-11T09:19:20.172Z,94720.28
2023-03-11T09:21:49.702Z,94729.94
2023-03-11T09:24:19.114Z,94724.63
2023-03-11T09:26:48.535Z,94716.97
2023-03-11T09:29:17.934Z,94720.28
2023-03-11T09:31:47.439Z,94720.03
2023-03-11T09:34:16.956Z,94720.22
2023-03-11T09:36:47.926Z,94723.03
2023-03-11T09:39:17.488Z,94720.28
2023-03-11T09:41:58.675Z,94727.63
2023-03-11T09:44:38.864Z,94731.72
2023-03-11T09:47:49.760Z,94726.44
2023-03-11T09:50:40.502Z,94729.41
2023-03-11T09:53:30.625Z,94731.75
2023-03-11T09:56:03.999Z,94733.75
2023-03-11T09:58:41.741Z,94736.34
2023-03-11T10:01:20.913Z,94740.94
2023-03-11T10:03:54.524Z,94747.25
2023-03-11T10:06:29.913Z,94746.03
2023-03-11T10:09:11.706Z,94754.88
2023-03-11T10:12:03.244Z,94756.19
2023-03-11T10:14:52.858Z,94753.81
2023-03-11T10:17:50.231Z,94743.31
2023-03-11T10:20:27.444Z,94743.66
2023-03-11T10:23:17.623Z,94744.38
2023-03-11T10:26:04.704Z,94758.16
2023-03-11T10:28:43.364Z,94752.41
2023-03-11T10:31:24.892Z,94757.06
2023-03-11T10:34:00.259Z,94760.84
2023-03-11T10:36:51.648Z,94756.13
2023-03-11T10:39:21.716Z,94753.38
2023-03-11T10:41:56.907Z,94755.06
2023-03-11T10:44:33.401Z,94758.16
2023-03-11T10:47:03.841Z,94769.41
2023-03-11T10:49:33.836Z,94763.78
2023-03-11T10:52:06.073Z,94770.78
2023-03-11T10:54:45.870Z,94771.97
2023-03-11T10:57:28.246Z,94773.44
2023-03-11T11:00:00.197Z,94764.03
2023-03-11T11:02:32.654Z,94766.25
2023-03-11T11:05:32.642Z,94757.56
2023-03-11T11:08:09.296Z,94754.84
2023-03-11T11:10:52.748Z,94749.97
2023-03-11T11:13:25.789Z,94762.91
2023-03-11T11:16:03.288Z,94763.47
2023-03-11T11:18:38.149Z,94768.03
2023-03-11T11:21:12.992Z,94766.72
2023-03-11T11:23:45.218Z,94777.84
2023-03-11T11:26:22.263Z,94770.00
2023-03-11T11:29:13.826Z,94761.91
2023-03-11T11:31:46.826Z,94751.13
2023-03-11T11:34:32.328Z,94756.66
2023-03-11T11:37:05.878Z,94751.75
2023-03-11T11:39:51.367Z,94754.56
2023-03-11T11:42:21.833Z,94743.84
2023-03-11T11:44:58.832Z,94745.50
2023-03-11T11:47:36.352Z,94751.75
2023-03-11T11:50:15.820Z,94742.66
2023-03-11T11:52:52.935Z,94750.53
2023-03-11T11:55:26.842Z,94752.50
2023-03-11T11:57:56.403Z,94742.25
2023-03-11T12:00:41.735Z,94750.59
2023-03-11T12:03:49.299Z,94745.06
2023-03-11T12:06:28.321Z,94743.38
2023-03-11T12:09:15.579Z,94738.06
2023-03-11T12:11:56.097Z,94739.16
2023-03-11T12:14:32.088Z,94730.63
2023-03-11T12:17:04.828Z,94736.78
2023-03-11T12:19:43.892Z,94731.97
2023-03-11T12:23:11.367Z,94724.44
2023-03-11T12:25:57.337Z,94723.25
2023-03-11T12:28:42.320Z,94727.53
2023-03-11T12:31:14.144Z,94713.03
2023-03-11T12:33:48.673Z,94719.00
2023-03-11T12:36:29.862Z,94722.66
2023-03-11T12:39:01.389Z,94719.47
2023-03-11T12:41:39.911Z,94708.13
2023-03-11T12:44:31.600Z,94721.00
2023-03-11T12:47:26.192Z,94714.50
2023-03-11T12:50:36.976Z,94712.09
2023-03-11T12:53:06.413Z,94702.44
2023-03-11T12:55:37.910Z,94702.16
2023-03-11T12:59:13.225Z,94710.38
2023-03-11T13:01:58.984Z,94697.63
2023-03-11T13:04:45.347Z,94701.19
2023-03-11T13:07:47.721Z,94703.06
2023-03-11T13:10:38.666Z,94705.59
2023-03-11T13:13:36.408Z,94700.16
2023-03-11T13:16:42.777Z,94704.22
2023-03-11T13:19:53.721Z,94707.72
2023-03-11T13:23:10.775Z,94702.13
2023-03-11T13:25:43.276Z,94705.31
2023-03-11T13:28:47.272Z,94718.97
2023-03-11T13:31:35.451Z,94714.16
2023-03-11T13:34:16.939Z,94710.44
2023-03-11T13:37:13.656Z,94714.75
2023-03-11T13:40:07.814Z,94715.00
2023-03-11T13:42:43.884Z,94703.00
2023-03-11T13:45:28.803Z,94713.41
2023-03-11T13:48:04.661Z,94721.72
2023-03-11T13:50:38.753Z,94715.81
2023-03-11T13:53:14.723Z,94711.00
2023-03-11T13:55:48.843Z,94711.81
2023-03-11T13:58:24.486Z,94719.06
2023-03-11T14:00:57.083Z,94714.13
2023-03-11T14:03:30.048Z,94714.81
2023-03-11T14:06:03.610Z,94711.06
2023-03-11T14:08:35.838Z,94711.25
2023-03-11T14:11:18.767Z,94710.72
2023-03-11T14:13:51.232Z,94702.34
2023-03-11T14:16:24.084Z,94705.91
2023-03-11T14:19:08.591Z,94704.75
2023-03-11T14:21:38.067Z,94719.41
2023-03-11T14:24:07.822Z,94712.84
2023-03-11T14:26:38.568Z,94712.00
2023-03-11T14:29:20.915Z,94722.50
2023-03-11T14:31:50.553Z,94721.03
2023-03-11T14:34:22.496Z,94723.47
2023-03-11T14:36:56.929Z,94720.78
2023-03-11T14:39:31.035Z,94718.78
2023-03-11T14:42:12.257Z,94730.66
2023-03-11T14:44:45.028Z,94714.59
2023-03-11T14:47:24.637Z,94716.47
2023-03-11T14:49:56.067Z,94726.91
2023-03-11T14:52:37.287Z,94725.38
2023-03-11T14:55:15.963Z,94730.16
2023-03-11T14:57:50.297Z,94732.22
2023-03-11T15:00:25.664Z,94738.97
2023-03-11T15:03:07.331Z,94744.53
2023-03-11T15:05:45.374Z,94750.75
2023-03-11T15:08:18.516Z,94750.47
2023-03-11T15:11:09.798Z,94747.91
2023-03-11T15:13:43.012Z,94753.97
2023-03-11T15:16:30.483Z,94750.72
2023-03-11T15:19:03.314Z,94742.72
2023-03-11T15:21:33.306Z,94743.03
2023-03-11T15:24:06.964Z,94748.19
2023-03-11T15:26:38.202Z,94751.78
2023-03-11T15:29:17.856Z,94735.75
2023-03-11T15:31:47.742Z,94746.91
2023-03-11T15:34:29.025Z,94751.97
2023-03-11T15:37:18.362Z,94750.88
2023-03-11T15:39:53.052Z,94746.00
2023-03-11T15:42:26.143Z,94755.03
2023-03-11T15:45:21.878Z,94764.56
2023-03-11T15:47:51.904Z,94765.47
2023-03-11T15:50:37.253Z,94769.31
2023-03-11T15:53:12.687Z,94774.31
2023-03-11T15:55:42.106Z,94776.66
2023-03-11T15:58:16.259Z,94782.22
2023-03-11T16:00:51.442Z,94776.47
2023-03-11T16:03:21.535Z,94774.94
2023-03-11T16:05:51.247Z,94773.91
2023-03-11T16:08:20.763Z,94772.03
2023-03-11T16:10:50.181Z,94773.38
2023-03-11T16:13:19.587Z,94771.72
2023-03-11T16:15:50.339Z,94775.94
2023-03-11T16:18:19.828Z,94782.28
2023-03-11T16:20:53.514Z,94785.38
2023-03-11T16:23:26.400Z,94795.47
2023-03-11T16:26:00.914Z,94795.75
2023-03-11T16:28:30.421Z,94797.38
2023-03-11T16:31:01.246Z,94806.88
2023-03-11T16:33:30.752Z,94809.13
2023-03-11T16:36:00.249Z,94816.56
2023-03-11T16:38:30.261Z,94815.53
2023-03-11T16:41:02.489Z,94824.53
2023-03-11T16:43:33.122Z,94827.41
2023-03-11T16:46:03.938Z,94831.78
2023-03-11T16:48:33.523Z,94834.06
2023-03-11T16:51:03.150Z,94828.94
2023-03-11T16:53:32.630Z,94833.06
2023-03-11T16:56:02.096Z,94836.69
2023-03-11T16:58:31.460Z,94848.56
2023-03-11T17:01:01.007Z,94850.63
2023-03-11T17:03:41.967Z,94855.78
2023-03-11T17:06:12.403Z,94851.25
2023-03-11T17:08:41.943Z,94847.47
2023-03-11T17:11:18.342Z,94860.41
2023-03-11T17:13:48.188Z,94873.63
2023-03-11T17:16:18.142Z,94880.72
2023-03-11T17:18:48.910Z,94878.28
2023-03-11T17:21:19.352Z,94890.94
2023-03-11T17:23:48.753Z,94900.66
2023-03-11T17:26:18.728Z,94905.59
2023-03-11T17:28:48.301Z,94907.59
2023-03-11T17:31:18.597Z,94913.38
2023-03-11T17:33:49.835Z,94901.03
2023-03-11T17:36:19.892Z,94906.53
2023-03-11T17:38:53.221Z,94907.38
2023-03-11T17:41:23.336Z,94914.44
2023-03-11T17:43:52.662Z,94910.88
2023-03-11T17:46:23.554Z,94914.81
2023-03-11T17:48:54.356Z,94914.97
2023-03-11T17:51:26.895Z,94923.63
2023-03-11T17:53:57.585Z,94925.25
2023-03-11T17:56:27.605Z,94934.50
2023-03-11T17:58:58.515Z,94939.50
2023-03-11T18:01:29.745Z,94940.19
2023-03-11T18:04:00.826Z,94933.50
2023-03-11T18:06:30.653Z,94944.59
2023-03-11T18:09:00.245Z,94939.75
2023-03-11T18:11:30.229Z,94934.09
2023-03-11T18:13:59.652Z,94936.41
2023-03-11T18:16:31.854Z,94941.72
2023-03-11T18:19:02.706Z,94947.00
2023-03-11T18:21:32.819Z,94947.63
2023-03-11T18:24:02.660Z,94953.84
2023-03-11T18:26:33.255Z,94947.38
2023-03-11T18:29:02.914Z,94959.50
2023-03-11T18:31:33.075Z,94952.22
2023-03-11T18:34:12.090Z,94960.09
2023-03-11T18:36:43.382Z,94970.94
2023-03-11T18:39:13.787Z,94974.28
2023-03-11T18:41:43.671Z,94972.66
2023-03-11T18:44:13.072Z,94976.56
2023-03-11T18:46:42.543Z,94978.88
2023-03-11T18:49:15.165Z,94974.00
2023-03-11T18:51:44.728Z,94982.31
2023-03-11T18:54:14.083Z,94985.22
2023-03-11T18:56:44.056Z,94982.19
2023-03-11T18:59:14.398Z,94986.56
2023-03-11T19:01:44.347Z,94981.50
2023-03-11T19:04:15.657Z,94981.72
2023-03-11T19:06:45.089Z,94990.16
2023-03-11T19:09:14.786Z,94986.91
2023-03-11T19:11:44.214Z,94997.97
2023-03-11T19:14:14.216Z,95009.03
2023-03-11T19:16:44.601Z,95007.41
2023-03-11T19:19:15.458Z,95010.53
2023-03-11T19:21:45.627Z,95008.31
2023-03-11T19:24:15.553Z,95013.84
2023-03-11T19:26:46.274Z,95017.97
2023-03-11T19:29:16.404Z,95015.34
2023-03-11T19:31:45.756Z,95019.25
2023-03-11T19:34:16.812Z,95013.38
2023-03-11T19:36:47.294Z,95023.72
2023-03-11T19:39:17.261Z,95023.19
2023-03-11T19:41:46.689Z,95028.69
2023-03-11T19:44:16.115Z,95023.63
2023-03-11T19:46:45.704Z,95036.28
2023-03-11T19:49:16.726Z,95036.28
2023-03-11T19:51:50.374Z,95035.72
2023-03-11T19:54:21.278Z,95036.97
2023-03-11T19:56:51.138Z,95051.25
2023-03-11T19:59:20.698Z,95046.16
2023-03-11T20:01:50.146Z,95046.63
2023-03-11T20:04:20.929Z,95045.22
2023-03-11T20:06:50.469Z,95053.84
2023-03-11T20:09:20.477Z,95048.63
2023-03-11T20:11:50.007Z,95054.22
2023-03-11T20:14:19.440Z,95061.44
2023-03-11T20:16:48.851Z,95057.47
2023-03-11T20:19:20.115Z,95056.16
2023-03-11T20:21:49.639Z,95060.72
2023-03-11T20:24:19.094Z,95068.59
2023-03-11T20:26:51.141Z,95081.88
2023-03-11T20:29:21.164Z,95082.97
2023-03-11T20:31:51.482Z,95076.69
2023-03-11T20:34:22.319Z,95074.91
2023-03-11T20:36:51.931Z,95070.31
2023-03-11T20:39:21.481Z,95069.75
2023-03-11T20:41:51.081Z,95064.13
2023-03-11T20:44:20.555Z,95072.97
2023-03-11T20:46:50.300Z,95071.16
2023-03-11T20:49:21.085Z,95070.63
2023-03-11T20:51:50.530Z,95065.38
2023-03-11T20:54:20.067Z,95073.16
2023-03-11T20:56:50.690Z,95066.50
2023-03-11T20:59:20.263Z,95073.06
2023-03-11T21:01:49.722Z,95075.94
2023-03-11T21:04:21.243Z,95077.84
2023-03-11T21:06:52.188Z,95077.06
2023-03-11T21:09:22.136Z,95079.13
2023-03-11T21:11:51.981Z,95077.34
2023-03-11T21:14:21.659Z,95082.44
2023-03-11T21:16:51.334Z,95082.25
2023-03-11T21:19:23.562Z,95080.25
2023-03-11T21:21:53.119Z,95084.13
2023-03-11T21:24:22.632Z,95081.88
2023-03-11T21:26:52.106Z,95084.31
2023-03-11T21:29:21.631Z,95088.59
2023-03-11T21:31:51.384Z,95083.91
2023-03-11T21:34:22.498Z,95081.88
2023-03-11T21:36:52.040Z,95085.31
2023-03-11T21:39:21.807Z,95092.03
2023-03-11T21:41:53.224Z,95094.44
2023-03-11T21:44:22.774Z,95092.41
2023-03-11T21:46:52.416Z,95091.41
2023-03-11T21:49:23.948Z,95083.25
2023-03-11T21:51:53.389Z,95085.69
2023-03-11T21:54:22.837Z,95086.31
2023-03-11T21:56:52.356Z,95096.22
2023-03-11T21:59:25.029Z,95092.53
2023-03-11T22:01:54.880Z,95083.19
2023-03-11T22:04:25.777Z,95089.47
2023-03-11T22:06:57.254Z,95083.75
2023-03-11T22:09:27.071Z,95085.16
2023-03-11T22:11:56.989Z,95096.97
2023-03-11T22:14:26.791Z,95095.34
2023-03-11T22:16:56.368Z,95090.88
2023-03-11T22:19:27.312Z,95096.16
2023-03-11T22:21:56.719Z,95090.28
2023-03-11T22:24:26.202Z,95086.44
2023-03-11T22:26:55.677Z,95086.03
2023-03-11T22:29:25.145Z,95093.78
2023-03-11T22:31:54.618Z,95093.84
2023-03-11T22:34:24.113Z,95104.41
2023-03-11T22:36:54.802Z,95106.47
2023-03-11T22:39:24.420Z,95101.44
2023-03-11T22:41:53.936Z,95105.31
2023-03-11T22:44:23.403Z,95115.47
2023-03-11T22:46:52.992Z,95112.03
2023-03-11T22:49:22.652Z,95121.59
2023-03-11T22:51:52.014Z,95117.75
2023-03-11T22:54:22.828Z,95125.88
2023-03-11T22:56:52.299Z,95114.94
2023-03-11T22:59:21.905Z,95129.75
2023-03-11T23:01:51.308Z,95119.59
2023-03-11T23:04:20.734Z,95118.59
2023-03-11T23:06:50.115Z,95120.56
2023-03-11T23:09:19.586Z,95120.78
2023-03-11T23:11:50.686Z,95111.44
2023-03-11T23:14:27.944Z,95120.34
2023-03-11T23:17:03.417Z,95109.97
2023-03-11T23:19:32.927Z,95113.03
2023-03-11T23:22:02.341Z,95113.03
2023-03-11T23:24:32.066Z,95111.00
2023-03-11T23:27:04.776Z,95110.59
2023-03-11T23:29:34.262Z,95115.28
2023-03-11T23:32:03.652Z,95110.63
2023-03-11T23:34:33.067Z,95121.59
2023-03-11T23:37:05.042Z,95124.84
2023-03-11T23:39:35.077Z,95126.06
2023-03-11T23:42:18.606Z,95123.66
2023-03-11T23:44:54.727Z,95130.97
2023-03-11T23:47:24.129Z,95136.25
2023-03-11T23:49:53.646Z,95139.09
2023-03-11T23:52:23.306Z,95139.91
2023-03-11T23:54:52.739Z,95142.94
2023-03-11T23:57:23.584Z,95139.06
2023-03-11T23:59:53.022Z,95133.19
